createdAt,value
2023-02-15T00:00:12.493Z,-2.20
2023-02-15T00:01:14.271Z,-2.20
2023-02-15T00:02:16.217Z,-2.20
2023-02-15T00:03:18.050Z,-2.20
2023-02-15T00:04:23.284Z,-2.20
2023-02-15T00:05:25.079Z,-2.20
2023-02-15T00:06:26.867Z,-2.20
2023-02-15T00:07:28.721Z,-2.20
2023-02-15T00:08:30.720Z,-2.20
2023-02-15T00:09:32.414Z,-2.20
2023-02-15T00:10:34.180Z,-2.20
2023-02-15T00:11:41.939Z,-2.20
2023-02-15T00:12:43.939Z,-2.30
2023-02-15T00:13:45.727Z,-2.30
2023-02-15T00:14:48.155Z,-2.30
2023-02-15T00:15:49.833Z,-2.30
2023-02-15T00:16:53.087Z,-2.30
2023-02-15T00:17:55.168Z,-2.30
2023-02-15T00:18:56.953Z,-2.30
2023-02-15T00:19:58.732Z,-2.30
2023-02-15T00:21:06.191Z,-2.30
2023-02-15T00:22:08.287Z,-2.30
2023-02-15T00:23:10.203Z,-2.30
2023-02-15T00:24:13.478Z,-2.30
2023-02-15T00:25:15.336Z,-2.30
2023-02-15T00:26:16.999Z,-2.30
2023-02-15T00:27:18.706Z,-2.30
2023-02-15T00:28:20.461Z,-2.40
2023-02-15T00:29:22.284Z,-2.40
2023-02-15T00:30:24.280Z,-2.40
2023-02-15T00:31:27.006Z,-2.40
2023-02-15T00:32:28.864Z,-2.40
2023-02-15T00:33:30.756Z,-2.40
2023-02-15T00:34:32.540Z,-2.40
2023-02-15T00:35:34.294Z,-2.40
2023-02-15T00:36:36.020Z,-2.40
2023-02-15T00:37:37.770Z,-2.40
2023-02-15T00:38:39.947Z,-2.50
2023-02-15T00:39:41.649Z,-2.40
2023-02-15T00:40:43.334Z,-2.50
2023-02-15T00:41:47.155Z,-2.50
2023-02-15T00:42:48.807Z,-2.40
2023-02-15T00:43:50.574Z,-2.50
2023-02-15T00:44:52.368Z,-2.50
2023-02-15T00:45:54.194Z,-2.50
2023-02-15T00:46:55.912Z,-2.50
2023-02-15T00:47:57.638Z,-2.40
2023-02-15T00:48:59.493Z,-2.50
2023-02-15T00:50:04.494Z,-2.50
2023-02-15T00:51:06.240Z,-2.50
2023-02-15T00:52:07.972Z,-2.50
2023-02-15T00:53:09.761Z,-2.50
2023-02-15T00:54:11.650Z,-2.60
2023-02-15T00:55:13.691Z,-2.60
2023-02-15T00:56:15.678Z,-2.60
2023-02-15T00:57:17.385Z,-2.60
2023-02-15T00:58:19.152Z,-2.60
2023-02-15T00:59:21.049Z,-2.70
2023-02-15T01:00:22.857Z,-2.70
2023-02-15T01:01:24.905Z,-2.60
2023-02-15T01:02:26.700Z,-2.70
2023-02-15T01:03:28.412Z,-2.70
2023-02-15T01:04:30.183Z,-2.60
2023-02-15T01:05:32.141Z,-2.70
2023-02-15T01:06:33.918Z,-2.70
2023-02-15T01:07:35.629Z,-2.70
2023-02-15T01:08:37.903Z,-2.70
2023-02-15T01:09:39.653Z,-2.70
2023-02-15T01:10:41.788Z,-2.70
2023-02-15T01:11:43.545Z,-2.70
2023-02-15T01:12:45.296Z,-2.70
2023-02-15T01:13:47.007Z,-2.70
2023-02-15T01:14:48.679Z,-2.70
2023-02-15T01:15:55.705Z,-2.70
2023-02-15T01:16:57.493Z,-2.70
2023-02-15T01:17:59.285Z,-2.70
2023-02-15T01:19:01.013Z,-2.70
2023-02-15T01:20:03.269Z,-2.70
2023-02-15T01:21:17.246Z,-2.70
2023-02-15T01:22:19.973Z,-2.70
2023-02-15T01:23:21.987Z,-2.70
2023-02-15T01:24:23.684Z,-2.70
2023-02-15T01:25:26.561Z,-2.70
2023-02-15T01:26:28.345Z,-2.70
2023-02-15T01:27:31.855Z,-2.70
2023-02-15T01:28:33.650Z,-2.70
2023-02-15T01:29:35.424Z,-2.70
2023-02-15T01:30:37.188Z,-2.70
2023-02-15T01:31:40.151Z,-2.70
2023-02-15T01:32:43.170Z,-2.80
2023-02-15T01:33:45.142Z,-2.80
2023-02-15T01:34:46.893Z,-2.90
2023-02-15T01:35:48.608Z,-2.80
2023-02-15T01:36:50.357Z,-2.80
2023-02-15T01:37:52.025Z,-2.80
2023-02-15T01:38:53.763Z,-2.90
2023-02-15T01:39:55.498Z,-2.90
2023-02-15T01:41:20.086Z,-2.90
2023-02-15T01:42:25.712Z,-2.90
2023-02-15T01:43:45.496Z,-2.90
2023-02-15T01:44:52.505Z,-2.90
2023-02-15T01:45:54.381Z,-2.90
2023-02-15T01:46:56.445Z,-2.90
2023-02-15T01:48:18.856Z,-2.90
2023-02-15T01:49:24.660Z,-2.90
2023-02-15T01:50:34.073Z,-2.90
2023-02-15T01:51:40.564Z,-2.90
2023-02-15T01:53:08.936Z,-2.90
2023-02-15T01:54:30.165Z,-2.90
2023-02-15T01:55:40.218Z,-2.90
2023-02-15T01:56:42.846Z,-2.90
2023-02-15T01:57:47.191Z,-2.90
2023-02-15T01:58:50.386Z,-2.90
2023-02-15T01:59:55.880Z,-2.90
2023-02-15T02:01:01.313Z,-2.90
2023-02-15T02:02:04.842Z,-2.90
2023-02-15T02:03:16.105Z,-2.90
2023-02-15T02:04:26.649Z,-2.90
2023-02-15T02:05:29.464Z,-2.90
2023-02-15T02:06:33.296Z,-2.90
2023-02-15T02:07:47.363Z,-2.90
2023-02-15T02:08:49.617Z,-2.90
2023-02-15T02:09:51.558Z,-2.90
2023-02-15T02:10:53.312Z,-2.90
2023-02-15T02:11:55.445Z,-2.90
2023-02-15T02:13:03.200Z,-2.90
2023-02-15T02:14:04.982Z,-2.90
2023-02-15T02:15:07.825Z,-2.90
2023-02-15T02:16:15.486Z,-2.90
2023-02-15T02:17:27.529Z,-2.90
2023-02-15T02:18:45.987Z,-2.90
2023-02-15T02:20:24.382Z,-2.90
2023-02-15T02:22:01.062Z,-2.90
2023-02-15T02:23:41.681Z,-2.90
2023-02-15T02:25:20.777Z,-2.90
2023-02-15T02:26:52.243Z,-3.00
2023-02-15T02:28:05.921Z,-3.00
2023-02-15T02:29:25.638Z,-3.00
2023-02-15T02:30:49.104Z,-3.00
2023-02-15T02:32:21.741Z,-3.00
2023-02-15T02:33:42.944Z,-3.00
2023-02-15T02:34:54.668Z,-3.00
2023-02-15T02:36:50.335Z,-3.00
2023-02-15T02:38:17.098Z,-3.00
2023-02-15T02:39:40.419Z,-3.00
2023-02-15T02:41:06.402Z,-3.10
2023-02-15T02:42:16.881Z,-3.00
2023-02-15T02:43:39.618Z,-3.10
2023-02-15T02:45:19.511Z,-3.10
2023-02-15T02:46:48.764Z,-3.10
2023-02-15T02:47:57.553Z,-3.10
2023-02-15T02:48:59.644Z,-3.10
2023-02-15T02:50:04.561Z,-3.10
2023-02-15T02:51:06.353Z,-3.10
2023-02-15T02:52:37.809Z,-3.10
2023-02-15T02:53:39.570Z,-3.10
2023-02-15T02:54:41.301Z,-3.10
2023-02-15T02:55:48.029Z,-3.10
2023-02-15T02:56:53.836Z,-3.10
2023-02-15T02:57:58.238Z,-3.10
2023-02-15T02:59:12.206Z,-3.10
2023-02-15T03:00:16.738Z,-3.10
2023-02-15T03:01:27.259Z,-3.10
2023-02-15T03:02:43.686Z,-3.10
2023-02-15T03:03:55.866Z,-3.10
2023-02-15T03:05:04.655Z,-3.10
2023-02-15T03:06:13.822Z,-3.10
2023-02-15T03:07:23.165Z,-3.10
2023-02-15T03:08:29.005Z,-3.10
2023-02-15T03:09:45.416Z,-3.10
2023-02-15T03:10:47.153Z,-3.10
2023-02-15T03:11:49.503Z,-3.10
2023-02-15T03:12:52.936Z,-3.10
2023-02-15T03:13:54.661Z,-3.10
2023-02-15T03:15:13.610Z,-3.10
2023-02-15T03:16:28.093Z,-3.10
2023-02-15T03:17:33.805Z,-3.20
2023-02-15T03:18:42.698Z,-3.20
2023-02-15T03:19:46.659Z,-3.20
2023-02-15T03:20:50.248Z,-3.20
2023-02-15T03:22:04.490Z,-3.20
2023-02-15T03:23:13.909Z,-3.20
2023-02-15T03:24:21.669Z,-3.20
2023-02-15T03:25:27.878Z,-3.10
2023-02-15T03:26:30.368Z,-3.20
2023-02-15T03:27:41.596Z,-3.20
2023-02-15T03:28:46.814Z,-3.20
2023-02-15T03:29:53.557Z,-3.20
2023-02-15T03:30:59.787Z,-3.20
2023-02-15T03:32:06.110Z,-3.20
2023-02-15T03:33:09.768Z,-3.20
2023-02-15T03:34:14.107Z,-3.20
2023-02-15T03:35:16.076Z,-3.20
2023-02-15T03:36:46.932Z,-3.30
2023-02-15T03:37:56.082Z,-3.30
2023-02-15T03:39:06.249Z,-3.30
2023-02-15T03:40:42.437Z,-3.30
2023-02-15T03:42:10.356Z,-3.40
2023-02-15T03:43:14.811Z,-3.40
2023-02-15T03:44:25.405Z,-3.40
2023-02-15T03:45:31.763Z,-3.40
2023-02-15T03:46:55.893Z,-3.40
2023-02-15T03:48:01.162Z,-3.40
2023-02-15T03:49:11.500Z,-3.40
2023-02-15T03:50:44.059Z,-3.40
2023-02-15T03:51:49.364Z,-3.40
2023-02-15T03:52:51.195Z,-3.40
2023-02-15T03:53:55.137Z,-3.40
2023-02-15T03:54:57.057Z,-3.40
2023-02-15T03:55:58.885Z,-3.50
2023-02-15T03:57:20.194Z,-3.40
2023-02-15T03:58:40.785Z,-3.40
2023-02-15T04:00:01.208Z,-3.40
2023-02-15T04:01:33.268Z,-3.40
2023-02-15T04:02:41.575Z,-3.50
2023-02-15T04:03:49.876Z,-3.50
2023-02-15T04:04:51.568Z,-3.50
2023-02-15T04:05:53.453Z,-3.50
2023-02-15T04:06:55.203Z,-3.50
2023-02-15T04:07:56.878Z,-3.50
2023-02-15T04:09:17.452Z,-3.50
2023-02-15T04:10:38.089Z,-3.50
2023-02-15T04:11:39.829Z,-3.50
2023-02-15T04:12:41.584Z,-3.50
2023-02-15T04:13:43.496Z,-3.50
2023-02-15T04:15:03.841Z,-3.50
2023-02-15T04:16:06.878Z,-3.50
2023-02-15T04:17:09.812Z,-3.50
2023-02-15T04:18:11.531Z,-3.50
2023-02-15T04:19:31.871Z,-3.50
2023-02-15T04:20:52.097Z,-3.50
2023-02-15T04:22:12.517Z,-3.50
2023-02-15T04:23:32.781Z,-3.50
2023-02-15T04:24:53.135Z,-3.50
2023-02-15T04:25:54.862Z,-3.50
2023-02-15T04:26:56.862Z,-3.50
2023-02-15T04:27:58.593Z,-3.50
2023-02-15T04:29:00.279Z,-3.50
2023-02-15T04:30:02.185Z,-3.50
2023-02-15T04:31:04.057Z,-3.50
2023-02-15T04:32:06.473Z,-3.50
2023-02-15T04:33:08.285Z,-3.50
2023-02-15T04:34:11.659Z,-3.50
2023-02-15T04:35:14.022Z,-3.50
2023-02-15T04:36:15.735Z,-3.50
2023-02-15T04:37:17.664Z,-3.50
2023-02-15T04:38:19.416Z,-3.50
2023-02-15T04:39:21.328Z,-3.50
2023-02-15T04:40:23.003Z,-3.50
2023-02-15T04:41:24.824Z,-3.50
2023-02-15T04:42:26.971Z,-3.50
2023-02-15T04:43:28.641Z,-3.50
2023-02-15T04:44:30.380Z,-3.50
2023-02-15T04:45:32.191Z,-3.50
2023-02-15T04:46:34.092Z,-3.50
2023-02-15T04:47:35.992Z,-3.50
2023-02-15T04:48:37.688Z,-3.50
2023-02-15T04:49:39.369Z,-3.50
2023-02-15T04:50:41.058Z,-3.50
2023-02-15T04:51:42.707Z,-3.60
2023-02-15T04:52:44.410Z,-3.50
2023-02-15T04:53:46.267Z,-3.60
2023-02-15T04:54:48.036Z,-3.60
2023-02-15T04:55:49.781Z,-3.60
2023-02-15T04:56:51.782Z,-3.60
2023-02-15T04:57:53.540Z,-3.60
2023-02-15T04:58:55.280Z,-3.60
2023-02-15T04:59:58.158Z,-3.60
2023-02-15T05:00:59.944Z,-3.60
2023-02-15T05:02:01.969Z,-3.60
2023-02-15T05:03:04.070Z,-3.60
2023-02-15T05:04:05.904Z,-3.60
2023-02-15T05:05:08.233Z,-3.60
2023-02-15T05:06:09.957Z,-3.60
2023-02-15T05:07:11.679Z,-3.60
2023-02-15T05:08:13.472Z,-3.60
2023-02-15T05:09:15.659Z,-3.60
2023-02-15T05:10:17.427Z,-3.60
2023-02-15T05:11:19.136Z,-3.60
2023-02-15T05:12:20.864Z,-3.70
2023-02-15T05:13:22.807Z,-3.60
2023-02-15T05:14:24.587Z,-3.60
2023-02-15T05:15:26.371Z,-3.60
2023-02-15T05:16:28.853Z,-3.60
2023-02-15T05:17:30.665Z,-3.60
2023-02-15T05:18:32.556Z,-3.60
2023-02-15T05:19:34.290Z,-3.70
2023-02-15T05:20:36.233Z,-3.70
2023-02-15T05:21:37.969Z,-3.70
2023-02-15T05:22:41.673Z,-3.70
2023-02-15T05:23:43.733Z,-3.70
2023-02-15T05:25:03.918Z,-3.70
2023-02-15T05:26:24.293Z,-3.70
2023-02-15T05:27:44.768Z,-3.70
2023-02-15T05:28:46.434Z,-3.70
2023-02-15T05:29:48.221Z,-3.70
2023-02-15T05:30:52.119Z,-3.70
2023-02-15T05:31:54.009Z,-3.70
2023-02-15T05:32:55.831Z,-3.70
2023-02-15T05:33:57.601Z,-3.70
2023-02-15T05:34:59.315Z,-3.70
2023-02-15T05:36:02.505Z,-3.70
2023-02-15T05:37:04.423Z,-3.60
2023-02-15T05:38:06.158Z,-3.60
2023-02-15T05:39:09.304Z,-3.60
2023-02-15T05:40:11.540Z,-3.60
2023-02-15T05:41:13.320Z,-3.60
2023-02-15T05:42:15.059Z,-3.60
2023-02-15T05:43:16.735Z,-3.60
2023-02-15T05:44:18.616Z,-3.60
2023-02-15T05:45:20.934Z,-3.60
2023-02-15T05:46:22.692Z,-3.60
2023-02-15T05:47:24.410Z,-3.60
2023-02-15T05:48:27.518Z,-3.60
2023-02-15T05:49:29.829Z,-3.70
2023-02-15T05:50:31.613Z,-3.70
2023-02-15T05:51:33.333Z,-3.70
2023-02-15T05:52:35.660Z,-3.70
2023-02-15T05:53:39.542Z,-3.70
2023-02-15T05:54:41.302Z,-3.70
2023-02-15T05:55:42.989Z,-3.70
2023-02-15T05:56:44.657Z,-3.70
2023-02-15T05:57:46.590Z,-3.70
2023-02-15T05:58:48.367Z,-3.70
2023-02-15T05:59:50.046Z,-3.70
2023-02-15T06:00:51.713Z,-3.70
2023-02-15T06:01:53.488Z,-3.70
2023-02-15T06:02:55.206Z,-3.70
2023-02-15T06:03:57.122Z,-3.70
2023-02-15T06:04:58.839Z,-3.70
2023-02-15T06:06:00.919Z,-3.80
2023-02-15T06:07:02.733Z,-3.80
2023-02-15T06:08:06.091Z,-3.80
2023-02-15T06:09:07.804Z,-3.80
2023-02-15T06:10:09.933Z,-3.80
2023-02-15T06:11:11.855Z,-3.80
2023-02-15T06:12:13.600Z,-3.80
2023-02-15T06:13:15.717Z,-3.90
2023-02-15T06:14:17.858Z,-3.90
2023-02-15T06:15:19.743Z,-3.90
2023-02-15T06:16:21.701Z,-3.90
2023-02-15T06:17:23.534Z,-3.90
2023-02-15T06:18:25.301Z,-3.90
2023-02-15T06:19:27.183Z,-3.90
2023-02-15T06:20:28.959Z,-3.90
2023-02-15T06:21:31.893Z,-3.90
2023-02-15T06:22:33.548Z,-3.90
2023-02-15T06:23:35.279Z,-3.90
2023-02-15T06:24:37.085Z,-4.00
2023-02-15T06:25:39.993Z,-3.90
2023-02-15T06:26:41.911Z,-3.90
2023-02-15T06:27:43.879Z,-3.90
2023-02-15T06:28:45.598Z,-3.90
2023-02-15T06:29:47.398Z,-3.90
2023-02-15T06:30:49.126Z,-3.90
2023-02-15T06:31:51.075Z,-3.90
2023-02-15T06:32:52.828Z,-3.90
2023-02-15T06:34:01.757Z,-3.90
2023-02-15T06:35:04.222Z,-3.90
2023-02-15T06:36:06.092Z,-3.90
2023-02-15T06:37:09.378Z,-3.90
2023-02-15T06:38:11.155Z,-3.90
2023-02-15T06:39:12.863Z,-3.90
2023-02-15T06:40:15.192Z,-3.90
2023-02-15T06:41:16.882Z,-3.90
2023-02-15T06:42:19.268Z,-3.90
2023-02-15T06:43:20.999Z,-3.90
2023-02-15T06:44:22.722Z,-3.90
2023-02-15T06:45:24.527Z,-3.90
2023-02-15T06:46:26.452Z,-3.90
2023-02-15T06:47:28.268Z,-3.90
2023-02-15T06:48:29.955Z,-3.90
2023-02-15T06:49:31.962Z,-3.90
2023-02-15T06:50:33.938Z,-3.90
2023-02-15T06:51:35.684Z,-4.00
2023-02-15T06:52:37.532Z,-3.90
2023-02-15T06:53:42.147Z,-3.90
2023-02-15T06:54:43.886Z,-4.00
2023-02-15T06:55:45.606Z,-4.00
2023-02-15T06:56:47.312Z,-4.00
2023-02-15T06:57:50.944Z,-4.00
2023-02-15T06:58:53.702Z,-4.00
2023-02-15T06:59:55.367Z,-4.00
2023-02-15T07:00:57.076Z,-4.00
2023-02-15T07:01:59.547Z,-3.90
2023-02-15T07:03:03.055Z,-3.90
2023-02-15T07:04:05.038Z,-3.90
2023-02-15T07:05:06.889Z,-3.90
2023-02-15T07:06:09.784Z,-3.90
2023-02-15T07:07:12.597Z,-3.90
2023-02-15T07:08:14.322Z,-3.90
2023-02-15T07:09:16.123Z,-3.80
2023-02-15T07:10:17.960Z,-3.80
2023-02-15T07:11:38.496Z,-3.80
2023-02-15T07:12:43.525Z,-3.80
2023-02-15T07:13:45.454Z,-3.80
2023-02-15T07:14:47.258Z,-3.80
2023-02-15T07:15:49.604Z,-3.70
2023-02-15T07:16:51.324Z,-3.70
2023-02-15T07:17:53.087Z,-3.70
2023-02-15T07:18:54.741Z,-3.70
2023-02-15T07:19:56.437Z,-3.70
2023-02-15T07:20:58.118Z,-3.60
2023-02-15T07:21:59.901Z,-3.60
2023-02-15T07:23:01.577Z,-3.60
2023-02-15T07:24:04.120Z,-3.50
2023-02-15T07:25:08.574Z,-3.50
2023-02-15T07:26:11.048Z,-3.50
2023-02-15T07:27:13.635Z,-3.50
2023-02-15T07:28:16.897Z,-3.50
2023-02-15T07:29:18.958Z,-3.50
2023-02-15T07:30:21.373Z,-3.50
2023-02-15T07:31:23.104Z,-3.50
2023-02-15T07:32:24.902Z,-3.40
2023-02-15T07:33:28.133Z,-3.40
2023-02-15T07:34:29.871Z,-3.30
2023-02-15T07:35:31.649Z,-3.30
2023-02-15T07:36:33.373Z,-3.30
2023-02-15T07:37:35.154Z,-3.30
2023-02-15T07:38:38.325Z,-3.30
2023-02-15T07:39:40.008Z,-3.20
2023-02-15T07:40:41.738Z,-3.20
2023-02-15T07:41:43.400Z,-3.20
2023-02-15T07:42:45.069Z,-3.20
2023-02-15T07:43:46.909Z,-3.10
2023-02-15T07:44:48.850Z,-3.10
2023-02-15T07:45:51.365Z,-3.10
2023-02-15T07:46:53.402Z,-3.10
2023-02-15T07:47:55.452Z,-3.00
2023-02-15T07:48:57.139Z,-3.10
2023-02-15T07:49:58.856Z,-2.90
2023-02-15T07:51:01.877Z,-2.90
2023-02-15T07:52:03.582Z,-2.90
2023-02-15T07:53:05.401Z,-2.90
2023-02-15T07:54:07.141Z,-2.80
2023-02-15T07:55:09.900Z,-2.80
2023-02-15T07:56:13.561Z,-2.80
2023-02-15T07:57:15.285Z,-2.80
2023-02-15T07:58:16.996Z,-2.70
2023-02-15T07:59:18.730Z,-2.70
2023-02-15T08:00:25.604Z,-2.70
2023-02-15T08:01:36.390Z,-2.60
2023-02-15T08:02:38.341Z,-2.60
2023-02-15T08:03:40.222Z,-2.50
2023-02-15T08:04:42.007Z,-2.50
2023-02-15T08:05:46.024Z,-2.50
2023-02-15T08:06:47.723Z,-2.40
2023-02-15T08:07:49.400Z,-2.40
2023-02-15T08:08:51.318Z,-2.40
2023-02-15T08:09:54.398Z,-2.30
2023-02-15T08:11:27.150Z,-2.30
2023-02-15T08:12:29.003Z,-2.20
2023-02-15T08:13:31.523Z,-2.20
2023-02-15T08:14:33.297Z,-2.10
2023-02-15T08:15:34.966Z,-2.10
2023-02-15T08:16:45.594Z,-2.10
2023-02-15T08:17:47.319Z,-2.00
2023-02-15T08:18:49.081Z,-2.00
2023-02-15T08:19:50.812Z,-1.90
2023-02-15T08:20:52.640Z,-1.90
2023-02-15T08:22:00.177Z,-1.90
2023-02-15T08:23:01.882Z,-1.80
2023-02-15T08:24:05.582Z,-1.90
2023-02-15T08:25:07.497Z,-1.80
2023-02-15T08:26:09.277Z,-1.80
2023-02-15T08:27:11.988Z,-1.80
2023-02-15T08:28:13.716Z,-1.70
2023-02-15T08:29:18.412Z,-1.70
2023-02-15T08:30:20.342Z,-1.70
2023-02-15T08:31:22.774Z,-1.60
2023-02-15T08:32:24.570Z,-1.60
2023-02-15T08:33:26.603Z,-1.50
2023-02-15T08:34:30.262Z,-1.40
2023-02-15T08:35:32.020Z,-1.30
2023-02-15T08:36:33.773Z,-1.20
2023-02-15T08:37:35.543Z,-1.20
2023-02-15T08:38:37.428Z,-1.20
2023-02-15T08:39:39.144Z,-1.10
2023-02-15T08:40:40.847Z,-1.00
2023-02-15T08:41:47.245Z,-1.00
2023-02-15T08:42:49.030Z,-0.90
2023-02-15T08:43:55.664Z,-0.90
2023-02-15T08:44:57.462Z,-0.90
2023-02-15T08:45:59.211Z,-0.90
2023-02-15T08:47:04.448Z,-0.80
2023-02-15T08:48:06.281Z,-0.80
2023-02-15T08:49:09.780Z,-0.80
2023-02-15T08:50:11.519Z,-0.80
2023-02-15T08:51:16.130Z,-0.70
2023-02-15T08:52:18.034Z,-0.70
2023-02-15T08:53:22.500Z,-0.70
2023-02-15T08:54:24.228Z,-0.70
2023-02-15T08:55:26.240Z,-0.60
2023-02-15T08:56:31.158Z,-0.60
2023-02-15T08:57:32.828Z,-0.60
2023-02-15T08:58:35.635Z,-0.60
2023-02-15T08:59:37.343Z,-0.60
2023-02-15T09:00:39.049Z,-0.50
2023-02-15T09:01:40.865Z,-0.50
2023-02-15T09:02:42.600Z,-0.50
2023-02-15T09:03:48.984Z,-0.50
2023-02-15T09:04:50.726Z,-0.50
2023-02-15T09:05:58.845Z,-0.50
2023-02-15T09:07:00.690Z,-0.40
2023-02-15T09:08:02.359Z,-0.40
2023-02-15T09:09:07.074Z,-0.30
2023-02-15T09:10:09.062Z,-0.30
2023-02-15T09:11:12.124Z,-0.30
2023-02-15T09:12:13.905Z,-0.30
2023-02-15T09:13:15.823Z,-0.30
2023-02-15T09:14:21.183Z,-0.30
2023-02-15T09:15:22.960Z,-0.20
2023-02-15T09:16:27.078Z,-0.20
2023-02-15T09:17:28.875Z,-0.20
2023-02-15T09:18:38.285Z,-0.10
2023-02-15T09:19:40.047Z,-0.10
2023-02-15T09:20:41.745Z,-0.10
2023-02-15T09:21:43.612Z,-0.10
2023-02-15T09:22:45.884Z,-0.10
2023-02-15T09:23:49.572Z,0.00
2023-02-15T09:24:51.229Z,0.00
2023-02-15T09:25:53.046Z,0.00
2023-02-15T09:26:54.757Z,0.00
2023-02-15T09:27:56.590Z,0.00
2023-02-15T09:29:01.829Z,0.00
2023-02-15T09:30:05.070Z,0.00
2023-02-15T09:31:13.410Z,0.00
2023-02-15T09:32:16.277Z,0.10
2023-02-15T09:33:18.093Z,0.10
2023-02-15T09:34:21.824Z,0.10
2023-02-15T09:35:24.092Z,0.10
2023-02-15T09:36:28.568Z,0.10
2023-02-15T09:37:32.818Z,0.10
2023-02-15T09:38:34.582Z,0.20
2023-02-15T09:39:40.438Z,0.20
2023-02-15T09:40:56.678Z,0.20
2023-02-15T09:42:36.823Z,0.20
2023-02-15T09:44:00.602Z,0.30
2023-02-15T09:45:27.676Z,0.30
2023-02-15T09:47:04.422Z,0.30
2023-02-15T09:48:33.561Z,0.40
2023-02-15T09:49:50.539Z,0.50
2023-02-15T09:51:17.364Z,0.50
2023-02-15T09:52:27.640Z,0.50
2023-02-15T09:53:56.076Z,0.50
2023-02-15T09:55:21.915Z,0.50
2023-02-15T09:56:23.581Z,0.50
2023-02-15T09:57:33.878Z,0.50
2023-02-15T09:58:56.764Z,0.60
2023-02-15T09:59:58.463Z,0.60
2023-02-15T10:01:14.722Z,0.60
2023-02-15T10:02:42.285Z,0.60
2023-02-15T10:04:21.074Z,0.60
2023-02-15T10:05:45.515Z,0.60
2023-02-15T10:07:05.344Z,0.70
2023-02-15T10:08:20.588Z,0.70
2023-02-15T10:10:07.081Z,0.70
2023-02-15T10:11:41.843Z,0.80
2023-02-15T10:13:05.765Z,0.80
2023-02-15T10:14:45.057Z,0.90
2023-02-15T10:16:13.325Z,0.90
2023-02-15T10:17:27.087Z,1.00
2023-02-15T10:18:55.004Z,1.00
2023-02-15T10:20:33.063Z,1.10
2023-02-15T10:21:43.685Z,1.10
2023-02-15T10:22:54.278Z,1.20
2023-02-15T10:24:06.754Z,1.20
2023-02-15T10:25:14.206Z,1.30
2023-02-15T10:26:23.862Z,1.40
2023-02-15T10:27:26.618Z,1.40
2023-02-15T10:28:35.359Z,1.50
2023-02-15T10:29:39.375Z,1.50
2023-02-15T10:30:57.122Z,1.60
2023-02-15T10:32:24.777Z,1.60
2023-02-15T10:33:44.653Z,1.70
2023-02-15T10:34:52.571Z,1.70
2023-02-15T10:36:06.367Z,1.80
2023-02-15T10:37:29.032Z,1.80
2023-02-15T10:38:30.752Z,1.90
2023-02-15T10:39:45.317Z,2.00
2023-02-15T10:41:06.012Z,2.10
2023-02-15T10:42:45.576Z,2.10
2023-02-15T10:43:55.925Z,2.20
2023-02-15T10:45:14.206Z,2.30
2023-02-15T10:46:34.606Z,2.30
2023-02-15T10:47:39.546Z,2.40
2023-02-15T10:49:09.134Z,2.40
2023-02-15T10:50:27.705Z,2.40
2023-02-15T10:52:13.742Z,2.50
2023-02-15T10:53:23.701Z,2.60
2023-02-15T10:54:38.230Z,2.60
2023-02-15T10:55:51.147Z,2.70
2023-02-15T10:57:07.066Z,2.80
2023-02-15T10:58:26.596Z,2.90
2023-02-15T10:59:42.254Z,2.90
2023-02-15T11:00:53.489Z,2.90
2023-02-15T11:02:06.214Z,3.00
2023-02-15T11:03:38.655Z,3.10
2023-02-15T11:04:49.636Z,3.10
2023-02-15T11:06:13.334Z,3.20
2023-02-15T11:07:35.042Z,3.30
2023-02-15T11:09:00.025Z,3.30
2023-02-15T11:10:19.999Z,3.40
2023-02-15T11:11:28.532Z,3.50
2023-02-15T11:12:32.616Z,3.50
2023-02-15T11:13:40.824Z,3.50
2023-02-15T11:14:50.409Z,3.60
2023-02-15T11:16:20.226Z,3.70
2023-02-15T11:17:46.317Z,3.70
2023-02-15T11:18:51.956Z,3.80
2023-02-15T11:20:22.768Z,3.90
2023-02-15T11:21:33.714Z,3.90
2023-02-15T11:22:35.848Z,4.00
2023-02-15T11:23:42.554Z,4.00
2023-02-15T11:24:46.712Z,4.10
2023-02-15T11:26:00.701Z,4.10
2023-02-15T11:27:13.807Z,4.20
2023-02-15T11:28:25.786Z,4.20
2023-02-15T11:29:41.276Z,4.20
2023-02-15T11:30:52.678Z,4.20
2023-02-15T11:31:59.458Z,4.30
2023-02-15T11:33:07.165Z,4.40
2023-02-15T11:34:30.518Z,4.50
2023-02-15T11:35:42.319Z,4.50
2023-02-15T11:36:45.926Z,4.50
2023-02-15T11:37:55.976Z,4.50
2023-02-15T11:39:08.823Z,4.60
2023-02-15T11:40:33.940Z,4.50
2023-02-15T11:41:54.988Z,4.60
2023-02-15T11:43:00.073Z,4.60
2023-02-15T11:44:04.790Z,4.60
2023-02-15T11:45:22.560Z,4.60
2023-02-15T11:46:24.578Z,4.60
2023-02-15T11:47:26.431Z,4.60
2023-02-15T11:48:32.252Z,4.70
2023-02-15T11:49:35.954Z,4.80
2023-02-15T11:50:38.019Z,4.80
2023-02-15T11:51:39.764Z,4.90
2023-02-15T11:52:41.483Z,4.90
2023-02-15T11:53:44.603Z,4.90
2023-02-15T11:54:51.202Z,4.90
2023-02-15T11:55:53.056Z,5.00
2023-02-15T11:56:59.308Z,5.00
2023-02-15T11:58:10.784Z,5.00
2023-02-15T11:59:20.205Z,5.10
2023-02-15T12:00:32.495Z,5.10
2023-02-15T12:01:47.916Z,5.20
2023-02-15T12:02:53.573Z,5.40
2023-02-15T12:04:02.552Z,5.40
2023-02-15T12:05:10.191Z,5.50
2023-02-15T12:06:27.521Z,5.60
2023-02-15T12:07:41.427Z,5.70
2023-02-15T12:08:49.716Z,5.80
2023-02-15T12:10:00.850Z,5.90
2023-02-15T12:11:13.293Z,5.90
2023-02-15T12:12:25.304Z,6.00
2023-02-15T12:13:27.143Z,6.10
2023-02-15T12:14:49.012Z,6.20
2023-02-15T12:15:58.429Z,6.40
2023-02-15T12:17:00.889Z,6.50
2023-02-15T12:18:03.284Z,6.70
2023-02-15T12:19:05.083Z,6.80
2023-02-15T12:20:16.154Z,6.90
2023-02-15T12:21:41.888Z,7.10
2023-02-15T12:23:05.386Z,7.20
2023-02-15T12:24:26.574Z,7.30
2023-02-15T12:25:40.769Z,7.50
2023-02-15T12:26:42.713Z,7.60
2023-02-15T12:27:45.022Z,7.80
2023-02-15T12:28:53.069Z,7.80
2023-02-15T12:30:00.143Z,7.90
2023-02-15T12:31:04.780Z,8.00
2023-02-15T12:32:11.161Z,8.10
2023-02-15T12:33:30.577Z,8.10
2023-02-15T12:34:40.635Z,8.20
2023-02-15T12:35:44.951Z,8.30
2023-02-15T12:36:55.292Z,8.30
2023-02-15T12:38:00.068Z,8.40
2023-02-15T12:39:14.250Z,8.40
2023-02-15T12:40:26.789Z,8.40
2023-02-15T12:41:28.579Z,8.30
2023-02-15T12:42:45.381Z,8.40
2023-02-15T12:43:47.114Z,8.40
2023-02-15T12:45:21.648Z,8.40
2023-02-15T12:46:27.637Z,8.40
2023-02-15T12:47:32.121Z,8.30
2023-02-15T12:48:33.888Z,8.30
2023-02-15T12:49:37.992Z,8.30
2023-02-15T12:50:41.367Z,8.20
2023-02-15T12:51:58.180Z,8.20
2023-02-15T12:53:34.989Z,8.20
2023-02-15T12:54:42.730Z,8.10
2023-02-15T12:56:02.187Z,8.10
2023-02-15T12:57:22.206Z,8.00
2023-02-15T12:58:26.436Z,7.90
2023-02-15T12:59:28.150Z,7.90
2023-02-15T13:00:32.597Z,7.80
2023-02-15T13:01:34.872Z,7.80
2023-02-15T13:02:49.211Z,7.80
2023-02-15T13:03:54.009Z,7.70
2023-02-15T13:04:57.736Z,7.60
2023-02-15T13:05:59.723Z,7.60
2023-02-15T13:07:03.664Z,7.60
2023-02-15T13:08:21.741Z,7.50
2023-02-15T13:09:35.457Z,7.50
2023-02-15T13:10:56.939Z,7.50
2023-02-15T13:12:16.520Z,7.50
2023-02-15T13:13:22.884Z,7.50
2023-02-15T13:14:33.148Z,7.60
2023-02-15T13:15:41.309Z,7.50
2023-02-15T13:16:45.721Z,7.50
2023-02-15T13:17:49.340Z,7.60
2023-02-15T13:18:52.272Z,7.50
2023-02-15T13:19:57.876Z,7.50
2023-02-15T13:21:17.956Z,7.60
2023-02-15T13:22:43.943Z,7.50
2023-02-15T13:23:58.843Z,7.60
2023-02-15T13:25:05.572Z,7.60
2023-02-15T13:26:16.588Z,7.60
2023-02-15T13:27:22.328Z,7.60
2023-02-15T13:28:33.719Z,7.70
2023-02-15T13:29:39.412Z,7.60
2023-02-15T13:30:47.560Z,7.70
2023-02-15T13:31:53.324Z,7.80
2023-02-15T13:33:00.569Z,7.80
2023-02-15T13:34:18.091Z,7.90
2023-02-15T13:35:20.723Z,7.90
2023-02-15T13:36:32.408Z,7.90
2023-02-15T13:38:04.380Z,7.90
2023-02-15T13:39:35.589Z,8.00
2023-02-15T13:40:51.141Z,8.10
2023-02-15T13:42:22.053Z,8.10
2023-02-15T13:43:48.459Z,8.20
2023-02-15T13:45:02.204Z,8.20
2023-02-15T13:46:09.600Z,8.20
2023-02-15T13:47:24.803Z,8.20
2023-02-15T13:48:51.296Z,8.20
2023-02-15T13:50:19.256Z,8.20
2023-02-15T13:51:20.980Z,8.20
2023-02-15T13:52:25.714Z,8.20
2023-02-15T13:53:59.865Z,8.20
2023-02-15T13:55:44.804Z,8.30
2023-02-15T13:57:08.139Z,8.30
2023-02-15T13:58:18.804Z,8.40
2023-02-15T13:59:57.105Z,8.40
2023-02-15T14:01:19.802Z,8.40
2023-02-15T14:02:51.083Z,8.40
2023-02-15T14:04:22.128Z,8.40
2023-02-15T14:05:51.352Z,8.40
2023-02-15T14:07:11.202Z,8.40
2023-02-15T14:08:20.156Z,8.40
2023-02-15T14:09:40.903Z,8.40
2023-02-15T14:11:00.883Z,8.40
2023-02-15T14:12:32.589Z,8.40
2023-02-15T14:13:48.620Z,8.30
2023-02-15T14:15:07.670Z,8.20
2023-02-15T14:16:28.666Z,8.10
2023-02-15T14:17:39.269Z,8.00
2023-02-15T14:18:53.856Z,8.00
2023-02-15T14:19:58.258Z,7.90
2023-02-15T14:21:30.509Z,7.80
2023-02-15T14:22:43.005Z,7.70
2023-02-15T14:23:50.976Z,7.60
2023-02-15T14:25:18.303Z,7.60
2023-02-15T14:26:32.926Z,7.50
2023-02-15T14:28:13.980Z,7.40
2023-02-15T14:29:45.420Z,7.40
2023-02-15T14:30:50.717Z,7.30
2023-02-15T14:31:58.464Z,7.20
2023-02-15T14:33:16.374Z,7.20
2023-02-15T14:34:25.677Z,7.20
2023-02-15T14:35:30.115Z,7.10
2023-02-15T14:36:32.632Z,7.10
2023-02-15T14:37:47.419Z,7.00
2023-02-15T14:38:59.076Z,6.90
2023-02-15T14:40:32.746Z,6.90
2023-02-15T14:41:54.303Z,6.90
2023-02-15T14:43:22.806Z,6.80
2023-02-15T14:44:38.625Z,6.80
2023-02-15T14:45:49.550Z,6.80
2023-02-15T14:47:04.009Z,6.80
2023-02-15T14:48:15.849Z,6.80